createdAt,value
2019-02-11T00:01:31.144Z,6.60
2019-02-11T00:04:00.366Z,6.60
2019-02-11T00:06:29.428Z,6.50
2019-02-11T00:08:58.507Z,6.60
2019-02-11T00:11:28.186Z,6.60
2019-02-11T00:13:57.922Z,6.50
2019-02-11T00:16:27.237Z,6.60
2019-02-11T00:18:56.345Z,6.60
2019-02-11T00:21:25.412Z,6.50
2019-02-11T00:23:54.778Z,6.50
2019-02-11T00:26:23.898Z,6.50
2019-02-11T00:28:53.028Z,6.60
2019-02-11T00:31:22.120Z,6.60
2019-02-11T00:33:51.370Z,6.50
2019-02-11T00:36:20.550Z,6.60
2019-02-11T00:38:49.651Z,6.60
2019-02-11T00:41:19.010Z,6.60
2019-02-11T00:43:48.091Z,6.50
2019-02-11T00:46:17.199Z,6.50
2019-02-11T00:48:46.268Z,6.40
2019-02-11T00:51:16.787Z,6.40
2019-02-11T00:53:47.663Z,6.40
2019-02-11T00:56:16.686Z,6.40
2019-02-11T00:58:45.863Z,6.40
2019-02-11T01:01:14.929Z,6.30
2019-02-11T01:03:44.155Z,6.30
2019-02-11T01:06:13.251Z,6.30
2019-02-11T01:08:42.693Z,6.20
2019-02-11T01:11:11.750Z,6.20
2019-02-11T01:13:41.114Z,6.20
2019-02-11T01:16:10.759Z,6.20
2019-02-11T01:18:40.120Z,6.10
2019-02-11T01:21:09.231Z,6.10
2019-02-11T01:23:38.835Z,6.10
2019-02-11T01:26:07.949Z,6.00
2019-02-11T01:28:37.007Z,6.00
2019-02-11T01:31:06.112Z,5.90
2019-02-11T01:33:35.205Z,5.80
2019-02-11T01:36:04.275Z,5.90
2019-02-11T01:38:33.620Z,5.90
2019-02-11T01:41:02.994Z,5.90
2019-02-11T01:43:36.114Z,5.90
2019-02-11T01:46:03.263Z,5.90
2019-02-11T01:48:32.398Z,5.90
2019-02-11T01:51:01.585Z,5.80
2019-02-11T01:53:30.675Z,5.70
2019-02-11T01:55:59.775Z,5.80
2019-02-11T01:58:29.536Z,5.70
2019-02-11T02:00:58.660Z,5.60
2019-02-11T02:03:28.031Z,5.60
2019-02-11T02:05:57.690Z,5.60
2019-02-11T02:08:27.039Z,5.70
2019-02-11T02:10:56.491Z,5.60
2019-02-11T02:13:25.601Z,5.60
2019-02-11T02:15:54.961Z,5.60
2019-02-11T02:18:24.314Z,5.50
2019-02-11T02:20:53.461Z,5.60
2019-02-11T02:23:23.203Z,5.50
2019-02-11T02:25:52.282Z,5.50
2019-02-11T02:28:21.406Z,5.60
2019-02-11T02:30:50.750Z,5.50
2019-02-11T02:33:19.826Z,5.40
2019-02-11T02:35:49.207Z,5.40
2019-02-11T02:38:18.577Z,5.40
2019-02-11T02:40:47.970Z,5.30
2019-02-11T02:43:17.394Z,5.40
2019-02-11T02:45:46.730Z,5.40
2019-02-11T02:48:15.837Z,5.40
2019-02-11T02:50:45.278Z,5.40
2019-02-11T02:53:14.639Z,5.40
2019-02-11T02:55:43.722Z,5.40
2019-02-11T02:58:12.854Z,5.40
2019-02-11T03:00:41.933Z,5.40
2019-02-11T03:03:11.754Z,5.30
2019-02-11T03:05:40.817Z,5.30
2019-02-11T03:08:10.195Z,5.40
2019-02-11T03:10:39.283Z,5.30
2019-02-11T03:13:09.892Z,5.20
2019-02-11T03:15:39.518Z,5.20
2019-02-11T03:18:09.118Z,5.20
2019-02-11T03:20:38.221Z,5.20
2019-02-11T03:23:07.314Z,5.10
2019-02-11T03:25:36.473Z,5.00
2019-02-11T03:28:05.842Z,5.10
2019-02-11T03:30:35.670Z,5.10
2019-02-11T03:33:04.749Z,5.10
2019-02-11T03:35:34.209Z,5.10
2019-02-11T03:38:03.314Z,5.10
2019-02-11T03:40:32.393Z,5.20
2019-02-11T03:43:01.498Z,5.20
2019-02-11T03:45:30.872Z,5.10
2019-02-11T03:47:59.950Z,5.10
2019-02-11T03:50:29.055Z,5.00
2019-02-11T03:52:58.168Z,5.10
2019-02-11T03:55:27.269Z,5.10
2019-02-11T03:57:56.374Z,5.20
2019-02-11T04:00:25.515Z,5.20
2019-02-11T04:02:54.666Z,5.20
2019-02-11T04:05:23.776Z,5.10
2019-02-11T04:07:53.206Z,5.10
2019-02-11T04:10:22.310Z,5.10
2019-02-11T04:12:51.394Z,5.10
2019-02-11T04:15:20.487Z,5.10
2019-02-11T04:17:49.575Z,5.20
2019-02-11T04:20:18.663Z,5.20
2019-02-11T04:22:47.788Z,5.20
2019-02-11T04:25:16.942Z,5.30
2019-02-11T04:27:46.049Z,5.20
2019-02-11T04:30:15.436Z,5.20
2019-02-11T04:32:44.610Z,5.10
2019-02-11T04:35:13.698Z,5.10
2019-02-11T04:37:42.797Z,5.10
2019-02-11T04:40:11.922Z,5.10
2019-02-11T04:42:41.270Z,5.20
2019-02-11T04:45:10.531Z,5.20
2019-02-11T04:47:39.643Z,5.20
2019-02-11T04:50:09.158Z,5.20
2019-02-11T04:52:38.509Z,5.20
2019-02-11T04:55:07.742Z,5.30
2019-02-11T04:57:37.401Z,5.20
2019-02-11T05:00:07.799Z,5.20
2019-02-11T05:02:36.910Z,5.20
2019-02-11T05:05:07.183Z,5.20
2019-02-11T05:07:36.675Z,5.20
2019-02-11T05:10:07.766Z,5.20
2019-02-11T05:12:37.100Z,5.20
2019-02-11T05:15:06.934Z,5.20
2019-02-11T05:17:36.011Z,5.20
2019-02-11T05:20:06.196Z,5.20
2019-02-11T05:22:35.279Z,5.30
2019-02-11T05:25:04.534Z,5.30
2019-02-11T05:27:33.634Z,5.30
2019-02-11T05:30:02.786Z,5.30
2019-02-11T05:32:31.881Z,5.30
2019-02-11T05:35:01.242Z,5.30
2019-02-11T05:37:30.629Z,5.30
2019-02-11T05:39:59.980Z,5.30
2019-02-11T05:42:29.167Z,5.40
2019-02-11T05:44:58.267Z,5.40
2019-02-11T05:47:27.974Z,5.30
2019-02-11T05:49:57.467Z,5.30
2019-02-11T05:52:27.107Z,5.30
2019-02-11T05:54:56.758Z,5.30
2019-02-11T05:57:26.478Z,5.30
2019-02-11T05:59:55.589Z,5.30
2019-02-11T06:02:25.367Z,5.40
2019-02-11T06:04:54.562Z,5.40
2019-02-11T06:07:24.275Z,5.40
2019-02-11T06:09:53.479Z,5.40
2019-02-11T06:12:22.871Z,5.30
2019-02-11T06:14:54.180Z,5.30
2019-02-11T06:17:23.064Z,5.20
2019-02-11T06:19:52.402Z,5.20
2019-02-11T06:22:21.530Z,5.10
2019-02-11T06:24:51.184Z,5.10
2019-02-11T06:27:20.299Z,5.10
2019-02-11T06:29:49.403Z,5.10
2019-02-11T06:32:19.097Z,5.20
2019-02-11T06:34:48.256Z,5.20
2019-02-11T06:37:17.343Z,5.20
2019-02-11T06:39:46.730Z,5.30
2019-02-11T06:42:16.121Z,5.30
2019-02-11T06:44:45.204Z,5.30
2019-02-11T06:47:14.326Z,5.40
2019-02-11T06:49:43.969Z,5.40
2019-02-11T06:52:13.086Z,5.40
2019-02-11T06:54:42.196Z,5.50
2019-02-11T06:57:11.294Z,5.50
2019-02-11T06:59:40.634Z,5.60
2019-02-11T07:02:09.772Z,5.50
2019-02-11T07:04:39.148Z,5.60
2019-02-11T07:07:08.286Z,5.60
2019-02-11T07:09:37.885Z,5.70
2019-02-11T07:12:07.259Z,5.70
2019-02-11T07:14:36.395Z,5.60
2019-02-11T07:17:05.732Z,5.50
2019-02-11T07:19:34.886Z,5.60
2019-02-11T07:22:04.017Z,5.60
2019-02-11T07:24:33.086Z,5.60
2019-02-11T07:27:02.454Z,5.70
2019-02-11T07:29:31.766Z,5.70
2019-02-11T07:32:01.137Z,5.60
2019-02-11T07:34:30.496Z,5.70
2019-02-11T07:36:59.653Z,5.80
2019-02-11T07:39:29.012Z,5.70
2019-02-11T07:42:26.391Z,5.70
2019-02-11T07:44:57.917Z,5.70
2019-02-11T07:47:27.391Z,5.60
2019-02-11T07:49:56.746Z,5.80
2019-02-11T07:52:27.099Z,5.80
2019-02-11T07:54:56.401Z,5.80
2019-02-11T07:57:25.766Z,5.80
2019-02-11T07:59:55.119Z,5.90
2019-02-11T08:02:24.234Z,6.00
2019-02-11T08:04:53.336Z,6.00
2019-02-11T08:07:22.473Z,6.10
2019-02-11T08:09:51.858Z,6.10
2019-02-11T08:12:21.110Z,6.00
2019-02-11T08:14:50.195Z,6.10
2019-02-11T08:17:19.294Z,6.10
2019-02-11T08:19:48.401Z,6.10
2019-02-11T08:22:17.481Z,6.20
2019-02-11T08:24:46.882Z,6.20
2019-02-11T08:27:16.052Z,6.20
2019-02-11T08:29:46.233Z,6.30
2019-02-11T08:32:15.490Z,6.20
2019-02-11T08:34:44.833Z,6.10
2019-02-11T08:37:14.214Z,6.20
2019-02-11T08:39:43.554Z,6.20
2019-02-11T08:42:12.633Z,6.20
2019-02-11T08:44:41.747Z,6.20
2019-02-11T08:47:11.118Z,6.20
2019-02-11T08:49:40.281Z,6.20
2019-02-11T08:52:09.470Z,6.30
2019-02-11T08:54:39.111Z,6.20
2019-02-11T08:57:08.202Z,6.20
2019-02-11T08:59:37.305Z,6.20
2019-02-11T09:02:06.589Z,6.20
2019-02-11T09:04:35.717Z,6.30
2019-02-11T09:07:05.081Z,6.30
2019-02-11T09:09:34.223Z,6.30
2019-02-11T09:12:03.586Z,6.30
2019-02-11T09:14:32.946Z,6.30
2019-02-11T09:17:09.842Z,6.30
2019-02-11T09:19:33.286Z,6.30
2019-02-11T09:22:07.487Z,6.30
2019-02-11T09:24:34.853Z,6.30
2019-02-11T09:27:04.327Z,6.30
2019-02-11T09:29:33.765Z,6.40
2019-02-11T09:32:03.138Z,6.40
2019-02-11T09:34:32.250Z,6.30
2019-02-11T09:37:01.323Z,6.30
2019-02-11T09:39:30.647Z,6.30
2019-02-11T09:41:59.746Z,6.40
2019-02-11T09:44:29.901Z,6.40
2019-02-11T09:46:59.085Z,6.40
2019-02-11T09:49:28.250Z,6.30
2019-02-11T09:51:57.393Z,6.30
2019-02-11T09:54:27.038Z,6.30
2019-02-11T09:56:56.209Z,6.30
2019-02-11T09:59:25.306Z,6.40
2019-02-11T10:01:54.653Z,6.40
2019-02-11T10:04:23.761Z,6.30
2019-02-11T10:06:53.127Z,6.30
2019-02-11T10:09:22.202Z,6.30
2019-02-11T10:11:51.321Z,6.30
2019-02-11T10:14:20.402Z,6.30
2019-02-11T10:16:49.522Z,6.30
2019-02-11T10:19:18.605Z,6.30
2019-02-11T10:21:48.007Z,6.30
2019-02-11T10:24:17.113Z,6.30
2019-02-11T10:26:47.194Z,6.40
2019-02-11T10:29:16.355Z,6.80
2019-02-11T10:31:45.749Z,7.00
2019-02-11T10:34:14.830Z,7.10
2019-02-11T10:36:44.163Z,7.20
2019-02-11T10:39:13.542Z,7.10
2019-02-11T10:41:42.633Z,7.00
2019-02-11T10:44:12.070Z,7.00
2019-02-11T10:46:41.734Z,7.00
2019-02-11T10:49:10.826Z,7.10
2019-02-11T10:51:39.925Z,7.40
2019-02-11T10:54:09.571Z,7.60
2019-02-11T10:56:38.721Z,7.70
2019-02-11T10:59:07.808Z,7.80
2019-02-11T11:01:36.915Z,7.80
2019-02-11T11:04:06.022Z,7.80
2019-02-11T11:06:35.102Z,7.60
2019-02-11T11:09:06.488Z,7.40
2019-02-11T11:11:35.831Z,7.20
2019-02-11T11:14:04.913Z,7.00
2019-02-11T11:16:33.998Z,7.00
2019-02-11T11:19:03.930Z,7.00
2019-02-11T11:21:33.007Z,7.10
2019-02-11T11:24:02.378Z,7.00
2019-02-11T11:26:31.466Z,6.90
2019-02-11T11:29:00.575Z,6.90
2019-02-11T11:31:29.673Z,6.90
2019-02-11T11:33:59.011Z,7.00
2019-02-11T11:36:28.961Z,7.00
2019-02-11T11:38:58.042Z,7.00
2019-02-11T11:41:27.415Z,7.00
2019-02-11T11:43:56.760Z,7.00
2019-02-11T11:46:25.846Z,7.10
2019-02-11T11:48:54.987Z,7.10
2019-02-11T11:51:24.646Z,7.20
2019-02-11T11:53:54.011Z,7.20
2019-02-11T11:56:23.107Z,7.30
2019-02-11T11:58:52.232Z,7.40
2019-02-11T12:01:21.367Z,7.40
2019-02-11T12:03:50.596Z,7.50
2019-02-11T12:06:19.789Z,7.60
2019-02-11T12:08:49.187Z,7.70
2019-02-11T12:11:18.506Z,7.80
2019-02-11T12:13:47.958Z,7.90
2019-02-11T12:16:17.376Z,7.80
2019-02-11T12:18:46.520Z,7.80
2019-02-11T12:21:15.672Z,7.80
2019-02-11T12:23:44.779Z,7.80
2019-02-11T12:26:13.883Z,7.80
2019-02-11T12:28:43.013Z,7.70
2019-02-11T12:31:12.345Z,7.80
2019-02-11T12:33:41.459Z,7.80
2019-02-11T12:36:10.541Z,7.80
2019-02-11T12:38:39.690Z,7.80
2019-02-11T12:41:08.810Z,8.00
2019-02-11T12:43:38.263Z,8.10
2019-02-11T12:46:07.460Z,8.10
2019-02-11T12:48:36.607Z,8.20
2019-02-11T12:51:05.725Z,8.20
2019-02-11T12:53:35.182Z,8.20
2019-02-11T12:56:04.318Z,8.20
2019-02-11T12:58:33.613Z,8.20
2019-02-11T13:01:02.950Z,8.10
2019-02-11T13:03:32.072Z,8.10
2019-02-11T13:06:01.259Z,8.30
2019-02-11T13:08:31.499Z,8.40
2019-02-11T13:11:00.682Z,8.40
2019-02-11T13:13:29.883Z,8.40
2019-02-11T13:16:02.417Z,8.40
2019-02-11T13:18:30.237Z,8.50
2019-02-11T13:20:59.623Z,8.70
2019-02-11T13:23:28.716Z,8.90
2019-02-11T13:25:58.121Z,9.00
2019-02-11T13:28:27.870Z,9.10
2019-02-11T13:30:56.987Z,9.20
2019-02-11T13:33:26.126Z,9.40
2019-02-11T13:35:55.433Z,9.20
2019-02-11T13:38:24.922Z,9.10
2019-02-11T13:40:54.115Z,8.90
2019-02-11T13:43:23.221Z,8.90
2019-02-11T13:45:52.644Z,8.70
2019-02-11T13:48:21.790Z,8.60
2019-02-11T13:50:50.889Z,8.60
2019-02-11T13:53:20.277Z,8.50
2019-02-11T13:55:49.850Z,8.40
2019-02-11T13:58:18.971Z,8.20
2019-02-11T14:00:50.145Z,8.20
2019-02-11T14:03:20.427Z,8.30
2019-02-11T14:05:49.717Z,8.20
2019-02-11T14:08:18.939Z,8.10
2019-02-11T14:10:48.113Z,8.10
2019-02-11T14:13:17.236Z,8.20
2019-02-11T14:15:46.438Z,8.20
2019-02-11T14:18:16.183Z,8.20
2019-02-11T14:20:49.574Z,8.20
2019-02-11T14:23:16.275Z,8.00
2019-02-11T14:25:47.215Z,8.00
2019-02-11T14:28:16.289Z,7.90
2019-02-11T14:30:45.642Z,7.90
2019-02-11T14:33:14.937Z,7.90
2019-02-11T14:35:44.018Z,8.00
2019-02-11T14:38:13.116Z,8.00
2019-02-11T14:40:42.317Z,7.90
2019-02-11T14:43:11.483Z,7.90
2019-02-11T14:45:40.719Z,7.90
2019-02-11T14:48:25.964Z,7.90
2019-02-11T14:50:41.850Z,7.90
2019-02-11T14:53:10.973Z,7.90
2019-02-11T14:55:40.112Z,8.00
2019-02-11T14:58:09.194Z,8.00
2019-02-11T15:00:38.839Z,8.00
2019-02-11T15:03:07.959Z,8.10
2019-02-11T15:05:37.039Z,8.00
2019-02-11T15:08:06.152Z,8.00
2019-02-11T15:10:35.586Z,8.00
2019-02-11T15:13:04.665Z,8.10
2019-02-11T15:15:34.010Z,8.10
2019-02-11T15:18:03.408Z,7.90
2019-02-11T15:20:33.126Z,7.90
2019-02-11T15:23:02.216Z,8.00
2019-02-11T15:25:31.562Z,7.90
2019-02-11T15:28:00.957Z,8.00
2019-02-11T15:30:30.121Z,8.00
2019-02-11T15:32:59.730Z,8.00
2019-02-11T15:35:28.860Z,8.00
2019-02-11T15:37:58.209Z,8.00
2019-02-11T15:40:27.325Z,7.90
2019-02-11T15:42:56.459Z,7.80
2019-02-11T15:45:25.533Z,7.90
2019-02-11T15:47:54.906Z,7.70
2019-02-11T15:50:24.026Z,7.60
2019-02-11T15:52:53.435Z,7.60
2019-02-11T15:55:22.542Z,7.60
2019-02-11T15:57:51.661Z,7.50
2019-02-11T16:00:21.641Z,7.60
2019-02-11T16:02:51.721Z,7.70
2019-02-11T16:05:21.055Z,7.70
2019-02-11T16:07:50.188Z,7.70
2019-02-11T16:10:21.651Z,7.80
2019-02-11T16:12:51.291Z,7.90
2019-02-11T16:15:20.378Z,7.90
2019-02-11T16:17:49.469Z,7.90
2019-02-11T16:20:18.890Z,7.80
2019-02-11T16:22:48.072Z,7.80
2019-02-11T16:25:17.205Z,7.80
2019-02-11T16:27:46.334Z,7.80
2019-02-11T16:30:16.979Z,7.70
2019-02-11T16:32:46.064Z,7.50
2019-02-11T16:35:15.816Z,7.50
2019-02-11T16:37:45.006Z,7.40
2019-02-11T16:40:19.569Z,7.40
2019-02-11T16:42:48.762Z,7.40
2019-02-11T16:45:18.027Z,7.30
2019-02-11T16:47:47.357Z,7.30
2019-02-11T16:50:16.510Z,7.20
2019-02-11T16:52:45.657Z,7.00
2019-02-11T16:55:14.737Z,6.90
2019-02-11T16:57:43.849Z,6.90
2019-02-11T17:00:14.935Z,6.80
2019-02-11T17:02:44.030Z,6.70
2019-02-11T17:05:13.370Z,6.70
2019-02-11T17:07:42.570Z,6.60
2019-02-11T17:10:12.478Z,6.60
2019-02-11T17:12:41.939Z,6.60
2019-02-11T17:15:12.784Z,6.60
2019-02-11T17:17:42.196Z,6.60
2019-02-11T17:20:12.128Z,6.60
2019-02-11T17:22:41.211Z,6.70
2019-02-11T17:25:10.754Z,6.60
2019-02-11T17:27:40.116Z,6.60
2019-02-11T17:30:12.234Z,6.70
2019-02-11T17:32:41.606Z,6.70
2019-02-11T17:35:11.267Z,6.70
2019-02-11T17:37:40.734Z,6.70
2019-02-11T17:40:11.870Z,6.80
2019-02-11T17:42:41.098Z,6.70
2019-02-11T17:45:13.434Z,6.70
2019-02-11T17:47:43.108Z,6.70
2019-02-11T17:50:12.410Z,6.70
2019-02-11T17:52:41.522Z,6.70
2019-02-11T17:55:11.483Z,6.70
2019-02-11T17:57:40.884Z,6.70
2019-02-11T18:00:15.424Z,6.80
2019-02-11T18:02:44.827Z,6.80
2019-02-11T18:05:14.182Z,6.80
2019-02-11T18:07:43.531Z,6.80
2019-02-11T18:10:12.723Z,6.90
2019-02-11T18:12:42.058Z,6.90
2019-02-11T18:15:12.129Z,6.90
2019-02-11T18:17:41.274Z,6.90
2019-02-11T18:20:10.424Z,6.90
2019-02-11T18:22:40.165Z,6.80
2019-02-11T18:25:09.662Z,6.70
2019-02-11T18:27:38.751Z,6.70
2019-02-11T18:30:08.835Z,6.70
2019-02-11T18:32:38.175Z,6.70
2019-02-11T18:35:08.747Z,6.70
2019-02-11T18:37:37.832Z,6.70
2019-02-11T18:40:09.010Z,6.70
2019-02-11T18:42:38.420Z,6.70
2019-02-11T18:45:09.864Z,6.70
2019-02-11T18:47:39.018Z,6.70
2019-02-11T18:50:09.515Z,6.60
2019-02-11T18:52:38.739Z,6.50
2019-02-11T18:55:09.008Z,6.50
2019-02-11T18:57:38.603Z,6.40
2019-02-11T19:00:07.946Z,6.50
2019-02-11T19:02:37.080Z,6.50
2019-02-11T19:05:06.397Z,6.50
2019-02-11T19:07:35.498Z,6.50
2019-02-11T19:10:04.806Z,6.50
2019-02-11T19:12:33.994Z,6.50
2019-02-11T19:15:03.074Z,6.50
2019-02-11T19:17:32.198Z,6.40
2019-02-11T19:20:01.920Z,6.40
2019-02-11T19:22:31.053Z,6.40
2019-02-11T19:25:00.723Z,6.40
2019-02-11T19:27:29.845Z,6.50
2019-02-11T19:29:58.972Z,6.40
2019-02-11T19:32:28.101Z,6.40
2019-02-11T19:34:57.238Z,6.40
2019-02-11T19:37:26.339Z,6.30
2019-02-11T19:39:55.772Z,6.30
2019-02-11T19:42:24.853Z,6.40
2019-02-11T19:44:54.231Z,6.40
2019-02-11T19:47:23.520Z,6.30
2019-02-11T19:49:52.977Z,6.30
2019-02-11T19:52:22.314Z,6.30
2019-02-11T19:54:52.306Z,6.30
2019-02-11T19:57:21.437Z,6.30
2019-02-11T19:59:50.521Z,6.30
2019-02-11T20:02:19.677Z,6.30
2019-02-11T20:04:48.782Z,6.20
2019-02-11T20:07:17.933Z,6.20
2019-02-11T20:09:47.296Z,6.20
2019-02-11T20:12:17.670Z,6.10
2019-02-11T20:14:47.078Z,6.10
2019-02-11T20:17:16.423Z,6.20
2019-02-11T20:19:45.842Z,6.10
2019-02-11T20:22:14.998Z,6.10
2019-02-11T20:24:44.112Z,6.10
2019-02-11T20:27:13.319Z,6.00
2019-02-11T20:29:42.886Z,6.00
2019-02-11T20:32:12.551Z,6.10
2019-02-11T20:34:41.735Z,6.10
2019-02-11T20:37:11.186Z,6.00
2019-02-11T20:39:42.050Z,5.90
2019-02-11T20:42:11.525Z,5.90
2019-02-11T20:44:41.034Z,6.10
2019-02-11T20:47:10.771Z,6.00
2019-02-11T20:49:39.954Z,5.90
2019-02-11T20:52:09.392Z,5.80
2019-02-11T20:54:38.551Z,5.70
2019-02-11T20:57:07.657Z,5.70
2019-02-11T20:59:36.847Z,5.70
2019-02-11T21:02:06.218Z,5.70
2019-02-11T21:04:35.959Z,5.60
2019-02-11T21:07:05.085Z,5.70
2019-02-11T21:09:34.240Z,5.70
2019-02-11T21:12:03.393Z,5.60
2019-02-11T21:14:32.817Z,5.50
2019-02-11T21:17:02.471Z,5.40
2019-02-11T21:19:31.615Z,5.30
2019-02-11T21:22:00.720Z,5.20
2019-02-11T21:24:32.281Z,5.10
2019-02-11T21:27:01.760Z,5.10
2019-02-11T21:29:30.851Z,5.10
2019-02-11T21:31:59.986Z,5.20
2019-02-11T21:34:29.120Z,5.30
2019-02-11T21:36:58.213Z,5.20
2019-02-11T21:39:27.306Z,5.20
2019-02-11T21:41:56.688Z,5.10
2019-02-11T21:44:26.369Z,5.20
2019-02-11T21:46:55.990Z,5.40
2019-02-11T21:49:25.411Z,5.50
2019-02-11T21:51:54.506Z,5.50
2019-02-11T21:54:24.125Z,5.50
2019-02-11T21:56:53.559Z,5.30
2019-02-11T21:59:22.681Z,5.40
2019-02-11T22:01:51.762Z,5.20
2019-02-11T22:04:20.858Z,5.00
2019-02-11T22:06:49.994Z,4.90
2019-02-11T22:09:19.080Z,4.90
2019-02-11T22:11:48.504Z,4.90
2019-02-11T22:14:17.626Z,4.80
2019-02-11T22:16:46.705Z,4.70
2019-02-11T22:19:15.886Z,4.70
2019-02-11T22:21:45.407Z,4.70
2019-02-11T22:24:14.530Z,4.60
2019-02-11T22:26:44.197Z,4.60
2019-02-11T22:29:13.330Z,4.60
2019-02-11T22:31:42.415Z,4.40
2019-02-11T22:34:11.806Z,4.40
2019-02-11T22:36:41.186Z,4.40
2019-02-11T22:39:10.369Z,4.50
2019-02-11T22:41:39.778Z,4.50
2019-02-11T22:44:08.891Z,4.40
2019-02-11T22:46:38.029Z,4.30
2019-02-11T22:49:07.168Z,4.20
2019-02-11T22:51:36.334Z,4.20
2019-02-11T22:54:05.678Z,4.20
2019-02-11T22:56:35.038Z,4.20
2019-02-11T22:59:04.150Z,4.20
2019-02-11T23:01:33.633Z,4.10
2019-02-11T23:04:02.749Z,4.00
2019-02-11T23:06:32.139Z,3.90
2019-02-11T23:09:01.263Z,3.80
2019-02-11T23:11:30.446Z,3.80
2019-02-11T23:13:59.811Z,3.70
2019-02-11T23:16:28.942Z,3.70
2019-02-11T23:18:58.059Z,3.60
2019-02-11T23:21:27.406Z,3.60
2019-02-11T23:23:56.505Z,3.60
2019-02-11T23:26:25.859Z,3.60
2019-02-11T23:28:54.944Z,3.60
2019-02-11T23:31:24.078Z,3.50
2019-02-11T23:33:53.758Z,3.50
2019-02-11T23:36:23.443Z,3.50
2019-02-11T23:38:52.823Z,3.50
2019-02-11T23:41:22.227Z,3.50
2019-02-11T23:43:52.011Z,3.50
2019-02-11T23:46:21.383Z,3.40
2019-02-11T23:48:50.786Z,3.40
2019-02-11T23:51:19.903Z,3.40
2019-02-11T23:53:49.019Z,3.40
2019-02-11T23:56:18.702Z,3.40
2019-02-11T23:58:48.105Z,3.30
